Date,TemperatureHighF,TemperatureAvgF,TemperatureLowF,DewpointHighF,DewpointAvgF,DewpointLowF,HumidityHigh,HumidityAvg,HumidityLow,PressureMaxIn,PressureMinIn,WindSpeedMaxMPH,WindSpeedAvgMPH,GustSpeedMaxMPH,PrecipitationSumIn
2013-3-1,34.9,26.7,20.5,34.6,26.2,17.6,99,98,85,30.62,30.21,2,0,4,0.05
2013-3-2,31.3,18.9,10.6,22.4,15.6,8.7,99,87,67,30.66,30.55,4,0,9,0.05
2013-3-3,35.1,26.7,22.5,34.8,26.1,22.2,99,97,90,30.55,30.02,7,2,15,0.01
2013-3-4,41.4,34.0,26.1,41.1,30.9,20.3,99,89,63,30.31,29.69,11,3,20,0.39
2013-3-5,30.6,26.9,24.6,29.8,25.5,22.1,99,94,84,30.01,29.78,5,1,11,0.01
2013-3-6,34.0,27.5,22.8,26.3,23.1,20.9,98,83,70,30.21,30.01,6,1,11,0.08
2013-3-7,39.9,27.2,11.8,24.6,19.5,9.3,92,73,52,30.30,30.21,3,0,6,0.01
2013-3-8,41.4,28.1,15.4,34.8,22.3,12.3,99,79,61,30.33,29.05,7,1,15,5.76
2013-3-9,39.7,34.5,28.8,36.1,31.4,-18.6,99,89,10,29.88,29.05,8,2,18,6.05
2013-3-10,40.1,36.6,33.1,39.8,36.4,32.8,99,99,99,29.44,29.27,5,1,11,0.64
2013-3-11,33.3,31.3,28.6,33.0,31.0,26.9,99,99,94,29.42,28.30,6,1,11,0.01
2013-3-12,31.8,26.3,19.8,28.9,24.0,18.6,99,91,77,29.66,29.42,7,3,14,0.01
2013-3-13,36.3,24.7,16.3,20.4,11.8,6.2,92,62,30,29.94,29.66,6,2,14,0.02
2013-3-14,39.2,25.3,13.1,30.6,19.9,7.8,98,80,62,29.94,29.68,5,1,11,0.02
2013-3-15,36.0,31.4,25.9,35.2,30.8,-17.1,99,98,10,29.69,29.42,97,1,97,0.24
2013-3-16,34.2,26.3,0.0,29.4,22.8,17.4,99,86,66,29.77,29.42,5,1,10,0.00
2013-3-17,35.6,24.7,15.1,22.5,15.2,7.0,80,67,56,29.86,29.66,7,1,13,0.00
2013-3-18,41.4,30.6,16.3,41.1,28.8,-20.6,99,93,75,29.91,29.50,11,4,19,0.11
2013-3-19,30.9,19.4,8.8,13.6,8.0,3.9,80,62,42,30.21,29.91,9,5,18,0.01
2013-3-20,24.4,14.5,6.1,8.2,1.9,-4.2,73,57,44,30.23,30.15,8,3,16,0.01
2013-3-21,32.2,18.3,6.4,12.9,6.0,-1.3,73,59,42,30.20,30.13,5,1,9,0.00
2013-3-22,40.5,25.4,12.6,19.0,12.0,4.7,72,58,41,30.21,30.14,6,0,10,0.00
2013-3-23,42.8,30.7,19.2,23.0,18.6,13.8,80,62,44,30.26,30.19,6,0,8,0.00
2013-3-24,33.4,29.3,27.0,29.8,24.6,18.8,93,82,69,30.20,29.94,6,1,14,0.04
2013-3-25,30.2,26.3,24.4,23.7,19.7,17.3,81,76,71,30.08,29.98,5,2,12,0.01
2013-3-26,43.5,34.3,28.4,26.5,22.3,19.7,72,62,48,30.40,30.25,5,1,10,0.00
2013-3-27,47.7,35.8,27.1,26.0,21.8,18.7,73,58,37,30.46,30.40,5,1,8,0.00
2013-3-28,41.0,28.8,25.2,23.3,18.9,16.8,74,66,50,30.48,30.45,3,0,5,0.00
2013-3-29,54.0,46.0,35.6,26.0,24.4,22.7,60,44,33,30.47,30.37,3,0,5,0.00
2013-3-30,37.8,35.4,34.2,25.2,24.4,23.4,69,64,57,30.38,30.27,2,0,6,0.00
2013-3-31,45.5,37.5,30.0,41.8,33.3,17.3,99,86,52,29.99,29.62,6,2,13,0.00